Terminal Aerodrome Forecast
Issued by NWS Pendleton, OR

Home | Current Version | Previous Version | Text Only | Print | Product List | Glossary On
Versions: 1 2 3 4 5 6 7 8 9 10 11 12 13 14
000
FTUS46 KPDT 310500
TAFPDT
TAF
KPDT 310525Z 3106/0106 VRB05KT 3SM BR BKN010 OVC150
     FM311600 24007KT P6SM OVC100
     FM312000 27009KT P6SM -SHRA OVC050
     FM010400 16005KT 5SM -RA BR OVC040=

USA.gov is the U.S. government's official web portal to all federal, state and local government web resources and services.